createdAt,value
2019-03-22T00:01:30.687Z,84.24
2019-03-22T00:04:01.874Z,83.27
2019-03-22T00:06:32.822Z,83.26
2019-03-22T00:09:04.403Z,84.25
2019-03-22T00:11:35.439Z,84.66
2019-03-22T00:14:06.359Z,86.15
2019-03-22T00:16:37.242Z,85.56
2019-03-22T00:19:08.136Z,84.86
2019-03-22T00:21:39.068Z,85.01
2019-03-22T00:24:10.260Z,85.10
2019-03-22T00:26:41.129Z,84.99
2019-03-22T00:29:12.048Z,86.29
2019-03-22T00:31:42.957Z,87.04
2019-03-22T00:34:13.878Z,86.66
2019-03-22T00:36:44.715Z,85.81
2019-03-22T00:39:15.861Z,86.57
2019-03-22T00:41:48.353Z,86.84
2019-03-22T00:44:19.332Z,86.90
2019-03-22T00:46:50.189Z,86.72
2019-03-22T00:49:21.190Z,87.15
2019-03-22T00:51:52.136Z,87.62
2019-03-22T00:54:23.215Z,87.81
2019-03-22T00:56:54.194Z,87.65
2019-03-22T00:59:25.061Z,87.84
2019-03-22T01:01:56.027Z,87.31
2019-03-22T01:04:26.975Z,87.37
2019-03-22T01:06:58.007Z,87.77
2019-03-22T01:09:28.956Z,87.83
2019-03-22T01:12:00.023Z,87.81
2019-03-22T01:14:30.931Z,87.46
2019-03-22T01:17:01.910Z,87.60
2019-03-22T01:19:32.913Z,87.64
2019-03-22T01:22:04.000Z,87.93
2019-03-22T01:24:34.966Z,88.28
2019-03-22T01:27:05.919Z,87.42
2019-03-22T01:29:36.934Z,87.41
2019-03-22T01:32:07.896Z,88.06
2019-03-22T01:34:39.048Z,88.33
2019-03-22T01:37:10.023Z,89.17
2019-03-22T01:39:40.937Z,89.26
2019-03-22T01:42:11.976Z,89.74
2019-03-22T01:44:42.962Z,90.19
2019-03-22T01:47:14.024Z,90.42
2019-03-22T01:49:45.089Z,90.23
2019-03-22T01:52:16.112Z,90.33
2019-03-22T01:54:47.148Z,90.26
2019-03-22T01:57:18.038Z,90.19
2019-03-22T01:59:48.912Z,90.75
2019-03-22T02:02:19.925Z,90.44
2019-03-22T02:04:50.773Z,90.46
2019-03-22T02:07:21.774Z,90.22
2019-03-22T02:09:52.826Z,90.05
2019-03-22T02:12:23.750Z,90.08
2019-03-22T02:14:54.727Z,90.99
2019-03-22T02:17:25.739Z,90.64
2019-03-22T02:19:56.803Z,90.84
2019-03-22T02:22:27.852Z,90.72
2019-03-22T02:24:58.716Z,91.96
2019-03-22T02:27:29.802Z,92.48
2019-03-22T02:30:00.779Z,91.88
2019-03-22T02:32:31.743Z,92.10
2019-03-22T02:35:02.759Z,92.49
2019-03-22T02:37:33.695Z,92.65
2019-03-22T02:40:07.232Z,92.03
2019-03-22T02:42:38.214Z,92.34
2019-03-22T02:45:11.650Z,92.47
2019-03-22T02:47:42.676Z,92.20
2019-03-22T02:50:18.630Z,91.85
2019-03-22T02:52:47.330Z,92.07
2019-03-22T02:55:18.364Z,92.76
2019-03-22T02:57:49.314Z,93.15
2019-03-22T03:00:20.405Z,93.67
2019-03-22T03:02:51.313Z,93.40
2019-03-22T03:05:22.895Z,93.00
2019-03-22T03:07:54.002Z,92.40
2019-03-22T03:10:24.978Z,92.85
2019-03-22T03:12:56.459Z,93.03
2019-03-22T03:15:27.573Z,92.76
2019-03-22T03:17:58.567Z,93.11
2019-03-22T03:20:29.569Z,93.31
2019-03-22T03:23:00.541Z,94.37
2019-03-22T03:25:31.523Z,94.05
2019-03-22T03:28:02.629Z,94.39
2019-03-22T03:30:34.064Z,94.50
2019-03-22T03:33:05.309Z,94.22
2019-03-22T03:35:36.326Z,94.84
2019-03-22T03:38:07.577Z,95.38
2019-03-22T03:40:38.595Z,95.33
2019-03-22T03:43:09.729Z,95.58
2019-03-22T03:45:40.745Z,95.88
2019-03-22T03:48:11.734Z,96.45
2019-03-22T03:50:42.663Z,96.64
2019-03-22T03:53:13.839Z,96.31
2019-03-22T03:55:44.857Z,95.94
2019-03-22T03:58:16.044Z,96.16
2019-03-22T04:00:47.133Z,95.92
2019-03-22T04:03:18.089Z,95.84
2019-03-22T04:05:49.081Z,96.33
2019-03-22T04:08:20.075Z,96.77
2019-03-22T04:10:50.972Z,96.77
2019-03-22T04:13:21.922Z,96.65
2019-03-22T04:15:52.963Z,97.07
2019-03-22T04:18:23.911Z,97.88
2019-03-22T04:20:54.763Z,98.38
2019-03-22T04:23:25.884Z,97.98
2019-03-22T04:25:56.833Z,97.90
2019-03-22T04:28:27.860Z,97.53
2019-03-22T04:30:58.924Z,97.27
2019-03-22T04:33:29.893Z,97.36
2019-03-22T04:36:00.769Z,97.33
2019-03-22T04:38:31.694Z,98.18
2019-03-22T04:41:02.550Z,97.53
2019-03-22T04:43:33.587Z,97.53
2019-03-22T04:46:05.292Z,97.95
2019-03-22T04:48:37.908Z,98.34
2019-03-22T04:51:10.192Z,98.93
2019-03-22T04:53:44.217Z,98.83
2019-03-22T04:56:18.653Z,98.88
2019-03-22T04:58:51.694Z,99.26
2019-03-22T05:01:24.563Z,99.91
2019-03-22T05:03:58.866Z,99.77
2019-03-22T05:06:29.885Z,99.61
2019-03-22T05:09:01.801Z,99.69
2019-03-22T05:11:33.239Z,99.12
2019-03-22T05:14:05.686Z,98.98
2019-03-22T05:16:42.737Z,98.74
2019-03-22T05:19:14.682Z,98.97
2019-03-22T05:21:46.787Z,99.18
2019-03-22T05:24:19.636Z,99.06
2019-03-22T05:26:51.732Z,98.93
2019-03-22T05:29:30.626Z,99.09
2019-03-22T05:32:04.701Z,99.13
2019-03-22T05:34:35.699Z,98.98
2019-03-22T05:37:06.743Z,98.74
2019-03-22T05:39:40.632Z,98.61
2019-03-22T05:42:14.805Z,98.41
2019-03-22T05:44:45.802Z,98.16
2019-03-22T05:47:19.245Z,97.84
2019-03-22T05:49:50.159Z,97.48
2019-03-22T05:52:22.763Z,97.89
2019-03-22T05:54:53.661Z,97.86
2019-03-22T05:57:24.635Z,97.36
2019-03-22T05:59:55.576Z,96.57
2019-03-22T06:02:26.535Z,95.47
2019-03-22T06:04:57.550Z,94.03
2019-03-22T06:07:31.068Z,92.43
2019-03-22T06:10:02.143Z,90.32
2019-03-22T06:12:33.095Z,88.96
2019-03-22T06:15:10.748Z,88.09
2019-03-22T06:17:51.133Z,86.51
2019-03-22T06:20:14.784Z,85.47
2019-03-22T06:22:45.781Z,83.86
2019-03-22T06:25:16.884Z,82.96
2019-03-22T06:27:47.824Z,82.29
2019-03-22T06:30:18.903Z,81.58
2019-03-22T06:32:49.861Z,82.08
2019-03-22T06:35:20.889Z,81.99
2019-03-22T06:37:51.803Z,82.17
2019-03-22T06:40:22.694Z,82.62
2019-03-22T06:42:53.665Z,82.95
2019-03-22T06:45:24.616Z,82.53
2019-03-22T06:47:55.686Z,82.27
2019-03-22T06:50:26.647Z,81.76
2019-03-22T06:52:57.481Z,80.71
2019-03-22T06:55:28.400Z,80.20
2019-03-22T06:57:59.348Z,79.86
2019-03-22T07:00:30.458Z,79.58
2019-03-22T07:03:02.025Z,78.28
2019-03-22T07:05:33.024Z,77.08
2019-03-22T07:08:04.085Z,75.23
2019-03-22T07:10:35.008Z,74.60
2019-03-22T07:13:06.242Z,74.50
2019-03-22T07:15:37.215Z,72.61
2019-03-22T07:18:08.068Z,70.83
2019-03-22T07:20:38.944Z,69.80
2019-03-22T07:23:09.896Z,68.65
2019-03-22T07:25:40.824Z,66.96
2019-03-22T07:28:11.818Z,64.98
2019-03-22T07:30:43.005Z,63.83
2019-03-22T07:33:13.978Z,62.71
2019-03-22T07:35:45.096Z,62.87
2019-03-22T07:38:16.068Z,60.87
2019-03-22T07:40:47.103Z,61.33
2019-03-22T07:43:17.990Z,58.97
2019-03-22T07:45:49.154Z,58.67
2019-03-22T07:48:20.071Z,57.25
2019-03-22T07:50:51.096Z,57.32
2019-03-22T07:53:22.410Z,56.66
2019-03-22T07:55:53.446Z,55.59
2019-03-22T07:58:24.609Z,54.92
2019-03-22T08:00:55.605Z,54.55
2019-03-22T08:03:26.754Z,55.07
2019-03-22T08:05:57.692Z,52.15
2019-03-22T08:08:28.779Z,52.45
2019-03-22T08:10:59.660Z,51.29
2019-03-22T08:13:30.620Z,51.49
2019-03-22T08:16:01.670Z,50.50
2019-03-22T08:18:32.681Z,50.74
2019-03-22T08:21:03.696Z,50.20
2019-03-22T08:23:34.751Z,49.13
2019-03-22T08:26:05.782Z,47.64
2019-03-22T08:28:36.742Z,46.44
2019-03-22T08:31:08.166Z,45.94
2019-03-22T08:33:39.213Z,45.92
2019-03-22T08:36:10.300Z,45.85
2019-03-22T08:38:41.263Z,45.60
2019-03-22T08:41:12.243Z,44.90
2019-03-22T08:43:43.409Z,44.41
2019-03-22T08:46:14.384Z,42.77
2019-03-22T08:48:45.786Z,42.04
2019-03-22T08:51:16.710Z,41.55
2019-03-22T08:53:55.114Z,40.34
2019-03-22T08:56:20.466Z,39.15
2019-03-22T08:58:51.449Z,38.67
2019-03-22T09:01:22.500Z,37.89
2019-03-22T09:03:53.699Z,38.32
2019-03-22T09:06:24.684Z,38.13
2019-03-22T09:08:55.891Z,37.38
2019-03-22T09:11:27.158Z,37.17
2019-03-22T09:13:58.465Z,35.24
2019-03-22T09:16:30.816Z,35.07
2019-03-22T09:19:01.949Z,35.27
2019-03-22T09:21:32.886Z,33.73
2019-03-22T09:24:04.003Z,34.07
2019-03-22T09:26:47.119Z,33.33
2019-03-22T09:29:07.643Z,33.35
2019-03-22T09:31:38.716Z,33.44
2019-03-22T09:34:09.817Z,33.36
2019-03-22T09:36:40.856Z,32.72
2019-03-22T09:39:11.796Z,32.52
2019-03-22T09:41:42.956Z,32.57
2019-03-22T09:44:13.824Z,32.66
2019-03-22T09:46:44.852Z,31.95
2019-03-22T09:49:15.779Z,32.22
2019-03-22T09:51:46.905Z,31.85
2019-03-22T09:54:18.035Z,31.33
2019-03-22T09:56:49.009Z,31.74
2019-03-22T09:59:20.235Z,30.11
2019-03-22T10:01:51.330Z,29.46
2019-03-22T10:04:22.342Z,28.60
2019-03-22T10:06:53.284Z,29.27
2019-03-22T10:09:24.283Z,29.34
2019-03-22T10:11:55.303Z,30.03
2019-03-22T10:14:26.236Z,29.45
2019-03-22T10:16:57.505Z,30.08
2019-03-22T10:19:28.481Z,30.19
2019-03-22T10:21:59.526Z,30.03
2019-03-22T10:24:30.425Z,29.16
2019-03-22T10:27:01.571Z,29.37
2019-03-22T10:29:33.137Z,28.24
2019-03-22T10:32:04.140Z,28.51
2019-03-22T10:34:35.030Z,28.04
2019-03-22T10:37:06.054Z,29.15
2019-03-22T10:39:36.987Z,29.81
2019-03-22T10:42:08.038Z,29.35
2019-03-22T10:44:39.551Z,28.19
2019-03-22T10:47:10.767Z,27.25
2019-03-22T10:49:42.256Z,28.39
2019-03-22T10:52:13.480Z,28.96
2019-03-22T10:54:44.520Z,29.51
2019-03-22T10:57:15.547Z,30.30
2019-03-22T10:59:46.654Z,30.31
2019-03-22T11:02:17.678Z,30.61
2019-03-22T11:04:48.647Z,30.80
2019-03-22T11:07:19.842Z,30.58
2019-03-22T11:09:50.842Z,30.58
2019-03-22T11:12:21.946Z,30.35
2019-03-22T11:14:52.893Z,29.80
2019-03-22T11:17:23.891Z,29.64
2019-03-22T11:20:01.339Z,28.84
2019-03-22T11:22:32.406Z,27.71
2019-03-22T11:25:04.950Z,26.82
2019-03-22T11:27:37.488Z,26.47
2019-03-22T11:30:12.207Z,24.86
2019-03-22T11:32:43.960Z,25.21
2019-03-22T11:35:15.162Z,25.35
2019-03-22T11:37:46.185Z,25.56
2019-03-22T11:40:20.495Z,27.90
2019-03-22T11:42:51.766Z,27.29
2019-03-22T11:45:24.686Z,27.33
2019-03-22T11:47:56.041Z,26.43
2019-03-22T11:50:31.340Z,27.23
2019-03-22T11:53:02.426Z,28.04
2019-03-22T11:55:33.794Z,28.76
2019-03-22T11:58:06.431Z,30.36
2019-03-22T12:00:37.665Z,30.04
2019-03-22T12:03:08.798Z,30.77
2019-03-22T12:05:44.562Z,31.18
2019-03-22T12:08:15.720Z,30.78
2019-03-22T12:10:46.918Z,30.38
2019-03-22T12:13:18.201Z,28.36
2019-03-22T12:15:49.281Z,26.33
2019-03-22T12:18:20.706Z,25.13
2019-03-22T12:20:52.464Z,27.46
2019-03-22T12:23:24.185Z,27.88
2019-03-22T12:25:57.572Z,27.46
2019-03-22T12:28:31.273Z,25.55
2019-03-22T12:31:02.531Z,25.10
2019-03-22T12:33:33.777Z,27.01
2019-03-22T12:36:04.965Z,27.15
2019-03-22T12:38:39.180Z,27.09
2019-03-22T12:41:10.634Z,26.74
2019-03-22T12:43:41.781Z,25.40
2019-03-22T12:46:12.992Z,25.40
2019-03-22T12:48:43.990Z,26.02
2019-03-22T12:51:15.173Z,24.84
2019-03-22T12:53:46.245Z,25.66
2019-03-22T12:56:17.318Z,25.66
2019-03-22T12:58:48.417Z,24.61
2019-03-22T13:01:19.467Z,23.97
2019-03-22T13:03:50.563Z,23.67
2019-03-22T13:06:22.011Z,22.51
2019-03-22T13:08:53.287Z,22.51
2019-03-22T13:11:24.388Z,23.21
2019-03-22T13:13:57.714Z,25.30
2019-03-22T13:16:31.715Z,24.83
2019-03-22T13:19:02.915Z,23.51
2019-03-22T13:21:34.002Z,23.65
2019-03-22T13:24:05.537Z,24.03
2019-03-22T13:26:36.587Z,25.72
2019-03-22T13:29:10.830Z,25.63
2019-03-22T13:31:41.914Z,24.34
2019-03-22T13:34:15.847Z,25.80
2019-03-22T13:36:48.559Z,26.47
2019-03-22T13:39:19.694Z,26.10
2019-03-22T13:41:51.781Z,26.10
2019-03-22T13:44:24.411Z,23.62
2019-03-22T13:46:56.932Z,23.42
2019-03-22T13:49:33.109Z,23.63
2019-03-22T13:52:07.070Z,24.26
2019-03-22T13:54:38.138Z,24.67
2019-03-22T13:57:11.099Z,25.82
2019-03-22T13:59:42.206Z,24.95
2019-03-22T14:02:13.190Z,24.06
2019-03-22T14:04:45.694Z,24.13
2019-03-22T14:07:17.032Z,24.35
2019-03-22T14:09:47.971Z,22.91
2019-03-22T14:12:19.016Z,22.68
2019-03-22T14:14:50.052Z,23.75
2019-03-22T14:17:25.507Z,24.87
2019-03-22T14:19:56.697Z,24.07
2019-03-22T14:22:27.974Z,23.25
2019-03-22T14:24:59.165Z,23.21
2019-03-22T14:27:30.336Z,23.43
2019-03-22T14:30:01.433Z,24.08
2019-03-22T14:32:32.492Z,24.09
2019-03-22T14:35:04.440Z,25.05
2019-03-22T14:37:35.493Z,25.65
2019-03-22T14:40:08.126Z,24.98
2019-03-22T14:42:39.208Z,24.90
2019-03-22T14:45:11.403Z,26.04
2019-03-22T14:47:42.824Z,27.25
2019-03-22T14:50:13.959Z,27.25
2019-03-22T14:52:45.061Z,26.32
2019-03-22T14:55:16.175Z,27.54
2019-03-22T14:57:49.326Z,26.57
2019-03-22T15:00:20.198Z,27.08
2019-03-22T15:02:51.422Z,26.81
2019-03-22T15:05:22.627Z,25.88
2019-03-22T15:07:54.010Z,25.43
2019-03-22T15:10:25.099Z,25.43
2019-03-22T15:12:56.079Z,24.99
2019-03-22T15:15:28.680Z,25.06
2019-03-22T15:18:04.436Z,25.76
2019-03-22T15:20:39.815Z,25.11
2019-03-22T15:23:24.962Z,24.33
2019-03-22T15:26:03.592Z,23.98
2019-03-22T15:28:48.345Z,23.98
2019-03-22T15:31:26.884Z,25.62
2019-03-22T15:33:59.971Z,25.62
2019-03-22T15:36:44.366Z,27.40
2019-03-22T15:39:24.100Z,27.46
2019-03-22T15:41:55.446Z,27.46
2019-03-22T15:44:26.493Z,27.58
2019-03-22T15:46:57.412Z,27.68
2019-03-22T15:49:28.304Z,28.88
2019-03-22T15:51:59.346Z,28.97
2019-03-22T15:54:30.270Z,28.55
2019-03-22T15:57:01.967Z,28.69
2019-03-22T15:59:32.985Z,28.95
2019-03-22T16:02:04.260Z,28.94
2019-03-22T16:04:35.286Z,29.20
2019-03-22T16:07:06.844Z,28.44
2019-03-22T16:09:37.766Z,28.28
2019-03-22T16:12:08.809Z,28.57
2019-03-22T16:14:39.734Z,29.48
2019-03-22T16:17:10.631Z,29.99
2019-03-22T16:19:41.732Z,31.28
2019-03-22T16:22:12.742Z,31.25
2019-03-22T16:24:43.813Z,31.28
2019-03-22T16:27:14.732Z,31.54
2019-03-22T16:29:49.918Z,31.87
2019-03-22T16:32:20.984Z,31.97
2019-03-22T16:34:52.180Z,32.23
2019-03-22T16:37:23.040Z,32.25
2019-03-22T16:40:01.188Z,31.89
2019-03-22T16:42:34.179Z,31.75
2019-03-22T16:45:09.263Z,32.05
2019-03-22T16:47:40.499Z,32.71
2019-03-22T16:50:21.264Z,33.47
2019-03-22T16:52:55.369Z,34.03
2019-03-22T16:55:28.082Z,34.76
2019-03-22T16:58:01.866Z,35.29
2019-03-22T17:00:32.943Z,35.43
2019-03-22T17:03:05.480Z,35.79
2019-03-22T17:05:36.638Z,36.13
2019-03-22T17:08:07.689Z,36.43
2019-03-22T17:10:42.259Z,36.72
2019-03-22T17:13:16.747Z,37.08
2019-03-22T17:15:47.798Z,37.47
2019-03-22T17:18:19.315Z,38.29
2019-03-22T17:20:50.661Z,38.99
2019-03-22T17:23:21.721Z,39.49
2019-03-22T17:25:52.747Z,39.80
2019-03-22T17:28:23.782Z,40.83
2019-03-22T17:30:54.851Z,41.25
2019-03-22T17:33:25.889Z,41.53
2019-03-22T17:35:57.212Z,42.34
2019-03-22T17:38:28.240Z,42.49
2019-03-22T17:40:59.574Z,43.05
2019-03-22T17:43:31.182Z,43.54
2019-03-22T17:46:02.380Z,43.85
2019-03-22T17:48:33.738Z,44.37
2019-03-22T17:51:04.846Z,44.70
2019-03-22T17:53:35.906Z,45.49
2019-03-22T17:56:06.871Z,45.63
2019-03-22T17:58:37.842Z,46.25
2019-03-22T18:01:08.992Z,46.42
2019-03-22T18:03:39.938Z,47.06
2019-03-22T18:06:10.924Z,47.37
2019-03-22T18:08:41.882Z,48.28
2019-03-22T18:11:13.060Z,48.41
2019-03-22T18:13:44.020Z,48.37
2019-03-22T18:16:15.065Z,48.58
2019-03-22T18:18:46.033Z,49.13
2019-03-22T18:21:16.962Z,49.60
2019-03-22T18:23:47.978Z,49.76
2019-03-22T18:26:19.440Z,49.91
2019-03-22T18:28:50.454Z,50.11
2019-03-22T18:31:23.097Z,50.63
2019-03-22T18:33:54.247Z,51.00
2019-03-22T18:36:25.751Z,51.60
2019-03-22T18:38:58.423Z,52.35
2019-03-22T18:41:29.355Z,52.69
2019-03-22T18:44:00.363Z,52.60
2019-03-22T18:46:31.334Z,52.76
2019-03-22T18:49:02.261Z,53.33
2019-03-22T18:51:33.328Z,53.99
2019-03-22T18:54:04.375Z,54.34
2019-03-22T18:56:35.327Z,53.96
2019-03-22T18:59:07.002Z,54.33
2019-03-22T19:01:37.931Z,55.08
2019-03-22T19:04:12.007Z,55.81
2019-03-22T19:06:42.988Z,56.12
2019-03-22T19:09:14.009Z,56.21
2019-03-22T19:11:44.997Z,56.11
2019-03-22T19:14:15.942Z,57.21
2019-03-22T19:16:47.020Z,57.47
2019-03-22T19:19:17.991Z,57.97
2019-03-22T19:21:49.298Z,58.65
2019-03-22T19:24:22.427Z,58.55
2019-03-22T19:26:53.761Z,58.42
2019-03-22T19:29:24.742Z,59.37
2019-03-22T19:31:55.751Z,59.85
2019-03-22T19:34:29.443Z,60.42
2019-03-22T19:37:00.334Z,60.39
2019-03-22T19:39:31.250Z,60.72
2019-03-22T19:42:02.265Z,60.95
2019-03-22T19:44:53.988Z,61.79
2019-03-22T19:47:25.170Z,62.26
2019-03-22T19:50:00.342Z,62.31
2019-03-22T19:52:31.602Z,62.86
2019-03-22T19:55:02.565Z,63.98
2019-03-22T19:57:33.977Z,65.26
2019-03-22T20:00:07.766Z,65.28
2019-03-22T20:02:40.594Z,65.98
2019-03-22T20:05:13.796Z,65.75
2019-03-22T20:07:44.917Z,65.93
2019-03-22T20:10:15.967Z,66.20
2019-03-22T20:12:52.705Z,66.54
2019-03-22T20:15:24.369Z,66.85
2019-03-22T20:17:56.782Z,67.02
2019-03-22T20:20:28.024Z,67.05
2019-03-22T20:23:02.364Z,67.71
2019-03-22T20:25:33.552Z,68.17
2019-03-22T20:28:04.632Z,68.60
2019-03-22T20:30:35.650Z,69.72
2019-03-22T20:33:07.041Z,70.38
2019-03-22T20:35:38.016Z,70.22
2019-03-22T20:38:10.081Z,70.74
2019-03-22T20:40:41.048Z,70.92
2019-03-22T20:43:12.017Z,71.23
2019-03-22T20:45:43.600Z,71.36
2019-03-22T20:48:14.830Z,72.88
2019-03-22T20:50:48.137Z,72.65
2019-03-22T20:53:22.523Z,73.76
2019-03-22T21:00:13.821Z,74.70
2019-03-22T21:02:46.012Z,75.00
2019-03-22T21:05:26.955Z,76.18
2019-03-22T21:07:51.776Z,76.46
2019-03-22T21:10:26.006Z,77.51
2019-03-22T21:13:03.680Z,76.93
2019-03-22T21:15:36.605Z,77.27
2019-03-22T21:18:07.945Z,77.81
2019-03-22T21:20:38.970Z,78.06
2019-03-22T21:23:11.517Z,78.13
2019-03-22T21:25:43.416Z,77.68
2019-03-22T21:28:15.148Z,78.93
2019-03-22T21:30:47.062Z,79.84
2019-03-22T21:33:19.108Z,79.96
2019-03-22T21:35:53.106Z,80.20
2019-03-22T21:38:32.503Z,79.85
2019-03-22T21:41:05.621Z,80.39
2019-03-22T21:43:36.627Z,79.76
2019-03-22T21:46:07.683Z,80.50
2019-03-22T21:48:38.830Z,80.39
2019-03-22T21:51:09.940Z,80.62
2019-03-22T21:53:41.003Z,81.18
2019-03-22T21:56:12.312Z,81.39
2019-03-22T22:01:39.951Z,81.21
2019-03-22T22:04:11.679Z,82.06
2019-03-22T22:06:42.655Z,82.73
2019-03-22T22:09:13.650Z,82.50
2019-03-22T22:11:53.382Z,82.33
2019-03-22T22:14:24.371Z,82.76
2019-03-22T22:17:04.821Z,82.96
2019-03-22T22:19:39.063Z,82.55
2019-03-22T22:22:09.960Z,82.76
2019-03-22T22:24:40.904Z,82.38
2019-03-22T22:27:15.493Z,82.52
2019-03-22T22:29:47.593Z,83.86
2019-03-22T22:32:18.850Z,84.11
2019-03-22T22:34:49.830Z,84.09
2019-03-22T22:37:20.855Z,83.86
2019-03-22T22:39:55.430Z,84.05
2019-03-22T22:42:26.397Z,84.33
2019-03-22T22:44:59.200Z,85.08
2019-03-22T22:47:30.271Z,85.54
2019-03-22T22:50:01.361Z,85.49
2019-03-22T22:52:32.432Z,85.24
2019-03-22T22:55:03.375Z,86.23
2019-03-22T22:57:34.319Z,86.82
2019-03-22T23:00:16.785Z,86.78
2019-03-22T23:02:48.103Z,87.70
2019-03-22T23:05:19.069Z,88.12
2019-03-22T23:07:49.935Z,88.50
2019-03-22T23:10:20.818Z,88.48
2019-03-22T23:12:51.843Z,89.07
2019-03-22T23:15:22.869Z,89.36
2019-03-22T23:17:53.841Z,88.42
2019-03-22T23:20:24.807Z,88.09
2019-03-22T23:22:55.763Z,88.37
2019-03-22T23:25:26.668Z,89.13
2019-03-22T23:27:57.861Z,89.69
2019-03-22T23:30:28.891Z,89.55
2019-03-22T23:33:00.133Z,90.42
2019-03-22T23:35:31.266Z,90.69
2019-03-22T23:38:02.303Z,91.83
2019-03-22T23:40:33.202Z,92.16
2019-03-22T23:43:04.152Z,92.22
2019-03-22T23:45:35.311Z,92.47
2019-03-22T23:48:06.272Z,92.57
2019-03-22T23:50:37.418Z,92.53
2019-03-22T23:53:08.280Z,92.56
2019-03-22T23:55:39.255Z,92.66
2019-03-22T23:58:10.200Z,94.20
